sensor_id;sensor_type;location;lat;lon;timestamp;temperature;humidity
15765;DHT22;7983;50.744;7.086;2024-01-30T00:00:56;10.70;99.90
15765;DHT22;7983;50.744;7.086;2024-01-30T00:03:24;10.50;99.90
15765;DHT22;7983;50.744;7.086;2024-01-30T00:05:50;10.60;99.90
15765;DHT22;7983;50.744;7.086;2024-01-30T00:08:16;10.50;99.90
15765;DHT22;7983;50.744;7.086;2024-01-30T00:10:44;10.50;99.90
15765;DHT22;7983;50.744;7.086;2024-01-30T00:13:11;10.50;99.90
15765;DHT22;7983;50.744;7.086;2024-01-30T00:15:39;10.50;99.90
15765;DHT22;7983;50.744;7.086;2024-01-30T00:18:04;10.50;99.90
15765;DHT22;7983;50.744;7.086;2024-01-30T00:20:30;10.50;99.90
15765;DHT22;7983;50.744;7.086;2024-01-30T00:22:58;10.50;99.90
15765;DHT22;7983;50.744;7.086;2024-01-30T00:25:26;10.40;99.90
15765;DHT22;7983;50.744;7.086;2024-01-30T00:27:51;10.40;99.90
15765;DHT22;7983;50.744;7.086;2024-01-30T00:30:20;10.50;99.90
15765;DHT22;7983;50.744;7.086;2024-01-30T00:32:46;10.40;99.90
15765;DHT22;7983;50.744;7.086;2024-01-30T00:35:11;10.40;99.90
15765;DHT22;7983;50.744;7.086;2024-01-30T00:37:39;10.40;99.90
15765;DHT22;7983;50.744;7.086;2024-01-30T00:40:07;10.40;99.90
15765;DHT22;7983;50.744;7.086;2024-01-30T00:42:38;10.40;99.90
15765;DHT22;7983;50.744;7.086;2024-01-30T00:45:06;10.40;99.90
15765;DHT22;7983;50.744;7.086;2024-01-30T00:47:34;10.40;99.90
15765;DHT22;7983;50.744;7.086;2024-01-30T00:49:59;10.40;99.90
15765;DHT22;7983;50.744;7.086;2024-01-30T00:52:25;10.40;99.90
15765;DHT22;7983;50.744;7.086;2024-01-30T00:54:50;10.30;99.90
15765;DHT22;7983;50.744;7.086;2024-01-30T00:57:18;10.30;99.90
15765;DHT22;7983;50.744;7.086;2024-01-30T00:59:44;10.30;99.90
15765;DHT22;7983;50.744;7.086;2024-01-30T01:02:10;10.40;99.90
15765;DHT22;7983;50.744;7.086;2024-01-30T01:04:35;10.30;99.90
15765;DHT22;7983;50.744;7.086;2024-01-30T01:07:01;10.30;99.90
15765;DHT22;7983;50.744;7.086;2024-01-30T01:09:29;10.30;99.90
15765;DHT22;7983;50.744;7.086;2024-01-30T01:11:57;10.20;99.90
15765;DHT22;7983;50.744;7.086;2024-01-30T01:14:22;10.30;99.90
15765;DHT22;7983;50.744;7.086;2024-01-30T01:16:48;10.30;99.90
15765;DHT22;7983;50.744;7.086;2024-01-30T01:19:14;10.20;99.90
15765;DHT22;7983;50.744;7.086;2024-01-30T01:21:41;10.20;99.90
15765;DHT22;7983;50.744;7.086;2024-01-30T01:24:07;10.20;99.90
15765;DHT22;7983;50.744;7.086;2024-01-30T01:26:33;10.20;99.90
15765;DHT22;7983;50.744;7.086;2024-01-30T01:28:59;10.30;99.90
15765;DHT22;7983;50.744;7.086;2024-01-30T01:31:29;10.20;99.90
15765;DHT22;7983;50.744;7.086;2024-01-30T01:33:59;10.20;99.90
15765;DHT22;7983;50.744;7.086;2024-01-30T01:36:30;10.30;99.90
15765;DHT22;7983;50.744;7.086;2024-01-30T01:38:58;10.20;99.90
15765;DHT22;7983;50.744;7.086;2024-01-30T01:41:23;10.30;99.90
15765;DHT22;7983;50.744;7.086;2024-01-30T01:43:49;10.30;99.90
15765;DHT22;7983;50.744;7.086;2024-01-30T01:46:15;10.30;99.90
15765;DHT22;7983;50.744;7.086;2024-01-30T01:48:41;10.30;99.90
15765;DHT22;7983;50.744;7.086;2024-01-30T01:51:09;10.30;99.90
15765;DHT22;7983;50.744;7.086;2024-01-30T01:53:37;10.30;99.90
15765;DHT22;7983;50.744;7.086;2024-01-30T01:56:03;10.30;99.90
15765;DHT22;7983;50.744;7.086;2024-01-30T01:58:29;10.30;99.90
15765;DHT22;7983;50.744;7.086;2024-01-30T02:00:56;10.20;99.90
15765;DHT22;7983;50.744;7.086;2024-01-30T02:03:22;10.30;99.90
15765;DHT22;7983;50.744;7.086;2024-01-30T02:05:48;10.30;99.90
15765;DHT22;7983;50.744;7.086;2024-01-30T02:08:14;10.40;99.90
15765;DHT22;7983;50.744;7.086;2024-01-30T02:10:42;10.30;99.90
15765;DHT22;7983;50.744;7.086;2024-01-30T02:13:08;10.30;99.90
15765;DHT22;7983;50.744;7.086;2024-01-30T02:15:36;10.30;99.90
15765;DHT22;7983;50.744;7.086;2024-01-30T02:18:04;10.30;99.90
15765;DHT22;7983;50.744;7.086;2024-01-30T02:20:34;10.30;99.90
15765;DHT22;7983;50.744;7.086;2024-01-30T02:23:01;10.30;99.90
15765;DHT22;7983;50.744;7.086;2024-01-30T02:25:46;10.30;99.90
15765;DHT22;7983;50.744;7.086;2024-01-30T02:28:15;10.30;99.90
15765;DHT22;7983;50.744;7.086;2024-01-30T02:30:43;10.30;99.90
15765;DHT22;7983;50.744;7.086;2024-01-30T02:33:10;10.40;99.90
15765;DHT22;7983;50.744;7.086;2024-01-30T02:35:36;10.30;99.90
15765;DHT22;7983;50.744;7.086;2024-01-30T02:38:02;10.30;99.90
15765;DHT22;7983;50.744;7.086;2024-01-30T02:40:28;10.30;99.90
15765;DHT22;7983;50.744;7.086;2024-01-30T02:42:56;10.30;99.90
15765;DHT22;7983;50.744;7.086;2024-01-30T02:45:24;10.30;99.90
15765;DHT22;7983;50.744;7.086;2024-01-30T02:47:50;10.20;99.90
15765;DHT22;7983;50.744;7.086;2024-01-30T02:50:15;10.20;99.90
15765;DHT22;7983;50.744;7.086;2024-01-30T02:52:42;10.20;99.90
15765;DHT22;7983;50.744;7.086;2024-01-30T02:55:09;10.20;99.90
15765;DHT22;7983;50.744;7.086;2024-01-30T02:57:35;10.20;99.90
15765;DHT22;7983;50.744;7.086;2024-01-30T03:00:01;10.20;99.90
15765;DHT22;7983;50.744;7.086;2024-01-30T03:02:32;10.20;99.90
15765;DHT22;7983;50.744;7.086;2024-01-30T03:05:00;10.20;99.90
15765;DHT22;7983;50.744;7.086;2024-01-30T03:07:26;10.20;99.90
15765;DHT22;7983;50.744;7.086;2024-01-30T03:09:51;10.20;99.90
15765;DHT22;7983;50.744;7.086;2024-01-30T03:12:17;10.30;99.90
15765;DHT22;7983;50.744;7.086;2024-01-30T03:14:43;10.20;99.90
15765;DHT22;7983;50.744;7.086;2024-01-30T03:17:11;10.20;99.90
15765;DHT22;7983;50.744;7.086;2024-01-30T03:19:39;10.20;99.90
15765;DHT22;7983;50.744;7.086;2024-01-30T03:22:05;10.20;99.90
15765;DHT22;7983;50.744;7.086;2024-01-30T03:24:30;10.20;99.90
15765;DHT22;7983;50.744;7.086;2024-01-30T03:26:56;10.20;99.90
15765;DHT22;7983;50.744;7.086;2024-01-30T03:29:26;10.20;99.90
15765;DHT22;7983;50.744;7.086;2024-01-30T03:31:51;10.10;99.90
15765;DHT22;7983;50.744;7.086;2024-01-30T03:34:22;10.10;99.90
15765;DHT22;7983;50.744;7.086;2024-01-30T03:36:47;10.10;99.90
15765;DHT22;7983;50.744;7.086;2024-01-30T03:39:16;10.10;99.90
15765;DHT22;7983;50.744;7.086;2024-01-30T03:41:44;10.10;99.90
15765;DHT22;7983;50.744;7.086;2024-01-30T03:44:12;10.10;99.90
15765;DHT22;7983;50.744;7.086;2024-01-30T03:46:37;10.00;99.90
15765;DHT22;7983;50.744;7.086;2024-01-30T03:49:03;10.00;99.90
15765;DHT22;7983;50.744;7.086;2024-01-30T03:51:29;10.00;99.90
15765;DHT22;7983;50.744;7.086;2024-01-30T03:53:57;10.00;99.90
15765;DHT22;7983;50.744;7.086;2024-01-30T03:56:23;10.10;99.90
15765;DHT22;7983;50.744;7.086;2024-01-30T03:58:52;10.00;99.90
15765;DHT22;7983;50.744;7.086;2024-01-30T04:01:18;10.00;99.90
15765;DHT22;7983;50.744;7.086;2024-01-30T04:03:44;10.00;99.90
15765;DHT22;7983;50.744;7.086;2024-01-30T04:06:10;10.00;99.90
15765;DHT22;7983;50.744;7.086;2024-01-30T04:08:39;9.90;99.90
15765;DHT22;7983;50.744;7.086;2024-01-30T04:11:05;10.00;99.90
15765;DHT22;7983;50.744;7.086;2024-01-30T04:13:33;10.00;99.90
15765;DHT22;7983;50.744;7.086;2024-01-30T04:16:00;10.00;99.90
15765;DHT22;7983;50.744;7.086;2024-01-30T04:18:29;9.90;99.90
15765;DHT22;7983;50.744;7.086;2024-01-30T04:20:57;10.00;99.90
15765;DHT22;7983;50.744;7.086;2024-01-30T04:23:25;10.00;99.90
15765;DHT22;7983;50.744;7.086;2024-01-30T04:25:50;10.00;99.90
15765;DHT22;7983;50.744;7.086;2024-01-30T04:28:18;9.90;99.90
15765;DHT22;7983;50.744;7.086;2024-01-30T04:30:48;10.00;99.90
15765;DHT22;7983;50.744;7.086;2024-01-30T04:33:16;9.90;99.90
15765;DHT22;7983;50.744;7.086;2024-01-30T04:35:47;9.90;99.90
15765;DHT22;7983;50.744;7.086;2024-01-30T04:38:15;9.90;99.90
15765;DHT22;7983;50.744;7.086;2024-01-30T04:40:43;9.90;99.90
15765;DHT22;7983;50.744;7.086;2024-01-30T04:43:08;9.90;99.90
15765;DHT22;7983;50.744;7.086;2024-01-30T04:45:36;9.80;99.90
15765;DHT22;7983;50.744;7.086;2024-01-30T04:48:02;9.80;99.90
15765;DHT22;7983;50.744;7.086;2024-01-30T04:50:28;9.80;99.90
15765;DHT22;7983;50.744;7.086;2024-01-30T04:52:56;9.80;99.90
15765;DHT22;7983;50.744;7.086;2024-01-30T04:55:21;9.80;99.90
15765;DHT22;7983;50.744;7.086;2024-01-30T04:57:47;9.80;99.90
15765;DHT22;7983;50.744;7.086;2024-01-30T05:00:13;9.70;99.90
15765;DHT22;7983;50.744;7.086;2024-01-30T05:02:41;9.70;99.90
15765;DHT22;7983;50.744;7.086;2024-01-30T05:05:07;9.80;99.90
15765;DHT22;7983;50.744;7.086;2024-01-30T05:07:33;9.70;99.90
15765;DHT22;7983;50.744;7.086;2024-01-30T05:09:59;9.70;99.90
15765;DHT22;7983;50.744;7.086;2024-01-30T05:12:25;9.70;99.90
15765;DHT22;7983;50.744;7.086;2024-01-30T05:14:53;9.60;99.90
15765;DHT22;7983;50.744;7.086;2024-01-30T05:17:18;9.60;99.90
15765;DHT22;7983;50.744;7.086;2024-01-30T05:19:44;9.70;99.90
15765;DHT22;7983;50.744;7.086;2024-01-30T05:22:10;9.70;99.90
15765;DHT22;7983;50.744;7.086;2024-01-30T05:24:36;9.60;99.90
15765;DHT22;7983;50.744;7.086;2024-01-30T05:27:04;9.60;99.90
15765;DHT22;7983;50.744;7.086;2024-01-30T05:29:30;9.60;99.90
15765;DHT22;7983;50.744;7.086;2024-01-30T05:31:55;9.60;99.90
15765;DHT22;7983;50.744;7.086;2024-01-30T05:34:23;9.60;99.90
15765;DHT22;7983;50.744;7.086;2024-01-30T05:36:49;9.60;99.90
15765;DHT22;7983;50.744;7.086;2024-01-30T05:39:14;9.60;99.90
15765;DHT22;7983;50.744;7.086;2024-01-30T05:41:40;9.60;99.90
15765;DHT22;7983;50.744;7.086;2024-01-30T05:44:08;9.60;99.90
15765;DHT22;7983;50.744;7.086;2024-01-30T05:46:35;9.60;99.90
15765;DHT22;7983;50.744;7.086;2024-01-30T05:49:01;9.60;99.90
15765;DHT22;7983;50.744;7.086;2024-01-30T05:51:29;9.60;99.90
15765;DHT22;7983;50.744;7.086;2024-01-30T05:53:57;9.50;99.90
15765;DHT22;7983;50.744;7.086;2024-01-30T05:56:22;9.50;99.90
15765;DHT22;7983;50.744;7.086;2024-01-30T05:58:50;9.50;99.90
15765;DHT22;7983;50.744;7.086;2024-01-30T06:01:21;9.60;99.90
15765;DHT22;7983;50.744;7.086;2024-01-30T06:03:46;9.50;99.90
15765;DHT22;7983;50.744;7.086;2024-01-30T06:06:12;9.50;99.90
15765;DHT22;7983;50.744;7.086;2024-01-30T06:08:37;9.50;99.90
15765;DHT22;7983;50.744;7.086;2024-01-30T06:11:05;9.50;99.90
15765;DHT22;7983;50.744;7.086;2024-01-30T06:13:31;9.50;99.90
15765;DHT22;7983;50.744;7.086;2024-01-30T06:16:01;9.60;99.90
15765;DHT22;7983;50.744;7.086;2024-01-30T06:18:27;9.50;99.90
15765;DHT22;7983;50.744;7.086;2024-01-30T06:20:57;9.50;99.90
15765;DHT22;7983;50.744;7.086;2024-01-30T06:23:22;9.60;99.90
15765;DHT22;7983;50.744;7.086;2024-01-30T06:25:48;9.50;99.90
15765;DHT22;7983;50.744;7.086;2024-01-30T06:28:13;9.50;99.90
15765;DHT22;7983;50.744;7.086;2024-01-30T06:30:39;9.50;99.90
15765;DHT22;7983;50.744;7.086;2024-01-30T06:33:04;9.50;99.90
15765;DHT22;7983;50.744;7.086;2024-01-30T06:35:32;9.50;99.90
15765;DHT22;7983;50.744;7.086;2024-01-30T06:38:00;9.50;99.90
15765;DHT22;7983;50.744;7.086;2024-01-30T06:40:26;9.50;99.90
15765;DHT22;7983;50.744;7.086;2024-01-30T06:42:52;9.50;99.90
15765;DHT22;7983;50.744;7.086;2024-01-30T06:45:19;9.50;99.90
15765;DHT22;7983;50.744;7.086;2024-01-30T06:47:47;9.50;99.90
15765;DHT22;7983;50.744;7.086;2024-01-30T06:50:13;9.50;99.90
15765;DHT22;7983;50.744;7.086;2024-01-30T06:52:41;9.50;99.90
15765;DHT22;7983;50.744;7.086;2024-01-30T06:55:07;9.50;99.90
15765;DHT22;7983;50.744;7.086;2024-01-30T06:57:35;9.50;99.90
15765;DHT22;7983;50.744;7.086;2024-01-30T07:00:00;9.60;99.90
15765;DHT22;7983;50.744;7.086;2024-01-30T07:02:26;9.60;99.90
15765;DHT22;7983;50.744;7.086;2024-01-30T07:04:52;9.60;99.90
15765;DHT22;7983;50.744;7.086;2024-01-30T07:07:20;9.60;99.90
15765;DHT22;7983;50.744;7.086;2024-01-30T07:09:45;9.60;99.90
15765;DHT22;7983;50.744;7.086;2024-01-30T07:12:15;9.60;99.90
15765;DHT22;7983;50.744;7.086;2024-01-30T07:14:40;9.60;99.90
15765;DHT22;7983;50.744;7.086;2024-01-30T07:17:08;9.60;99.90
15765;DHT22;7983;50.744;7.086;2024-01-30T07:19:34;9.60;99.90
15765;DHT22;7983;50.744;7.086;2024-01-30T07:22:00;9.60;99.90
15765;DHT22;7983;50.744;7.086;2024-01-30T07:24:26;9.60;99.90
15765;DHT22;7983;50.744;7.086;2024-01-30T07:26:52;9.60;99.90
15765;DHT22;7983;50.744;7.086;2024-01-30T07:29:18;9.60;99.90
15765;DHT22;7983;50.744;7.086;2024-01-30T07:31:47;9.60;99.90
15765;DHT22;7983;50.744;7.086;2024-01-30T07:34:15;9.60;99.90
15765;DHT22;7983;50.744;7.086;2024-01-30T07:36:40;9.60;99.90
15765;DHT22;7983;50.744;7.086;2024-01-30T07:39:08;9.70;99.90
15765;DHT22;7983;50.744;7.086;2024-01-30T07:41:35;9.70;99.90
15765;DHT22;7983;50.744;7.086;2024-01-30T07:44:03;9.70;99.90
15765;DHT22;7983;50.744;7.086;2024-01-30T07:46:29;9.70;99.90
15765;DHT22;7983;50.744;7.086;2024-01-30T07:48:57;9.60;99.90
15765;DHT22;7983;50.744;7.086;2024-01-30T07:51:22;9.70;99.90
15765;DHT22;7983;50.744;7.086;2024-01-30T07:53:50;9.80;99.90
15765;DHT22;7983;50.744;7.086;2024-01-30T07:56:16;9.70;99.90
15765;DHT22;7983;50.744;7.086;2024-01-30T07:58:44;9.80;99.90
15765;DHT22;7983;50.744;7.086;2024-01-30T08:01:10;9.70;99.90
15765;DHT22;7983;50.744;7.086;2024-01-30T08:03:35;9.70;99.90
15765;DHT22;7983;50.744;7.086;2024-01-30T08:06:02;9.80;99.90
15765;DHT22;7983;50.744;7.086;2024-01-30T08:08:30;9.80;99.90
15765;DHT22;7983;50.744;7.086;2024-01-30T08:10:58;9.80;99.90
15765;DHT22;7983;50.744;7.086;2024-01-30T08:13:24;9.80;99.90
15765;DHT22;7983;50.744;7.086;2024-01-30T08:15:52;9.80;99.90
15765;DHT22;7983;50.744;7.086;2024-01-30T08:18:20;9.80;99.90
15765;DHT22;7983;50.744;7.086;2024-01-30T08:20:45;9.80;99.90
15765;DHT22;7983;50.744;7.086;2024-01-30T08:23:11;9.80;99.90
15765;DHT22;7983;50.744;7.086;2024-01-30T08:25:37;9.80;99.90
15765;DHT22;7983;50.744;7.086;2024-01-30T08:28:02;9.80;99.90
15765;DHT22;7983;50.744;7.086;2024-01-30T08:30:33;9.80;99.90
15765;DHT22;7983;50.744;7.086;2024-01-30T08:32:59;9.90;99.90
15765;DHT22;7983;50.744;7.086;2024-01-30T08:35:24;9.90;99.90
15765;DHT22;7983;50.744;7.086;2024-01-30T08:37:52;9.90;99.90
15765;DHT22;7983;50.744;7.086;2024-01-30T08:40:21;10.00;99.90
15765;DHT22;7983;50.744;7.086;2024-01-30T08:42:47;10.00;99.90
15765;DHT22;7983;50.744;7.086;2024-01-30T08:45:15;10.00;99.90
15765;DHT22;7983;50.744;7.086;2024-01-30T08:47:41;10.00;99.90
15765;DHT22;7983;50.744;7.086;2024-01-30T08:50:07;10.00;99.90
15765;DHT22;7983;50.744;7.086;2024-01-30T08:52:35;10.00;99.90
15765;DHT22;7983;50.744;7.086;2024-01-30T08:55:00;10.10;99.90
15765;DHT22;7983;50.744;7.086;2024-01-30T08:57:26;10.10;99.90
15765;DHT22;7983;50.744;7.086;2024-01-30T08:59:59;10.10;99.90
15765;DHT22;7983;50.744;7.086;2024-01-30T09:02:28;10.20;99.90
15765;DHT22;7983;50.744;7.086;2024-01-30T09:04:53;10.20;99.90
15765;DHT22;7983;50.744;7.086;2024-01-30T09:07:19;10.30;99.90
15765;DHT22;7983;50.744;7.086;2024-01-30T09:09:47;10.30;99.90
15765;DHT22;7983;50.744;7.086;2024-01-30T09:12:15;10.40;99.90
15765;DHT22;7983;50.744;7.086;2024-01-30T09:14:40;10.40;99.90
15765;DHT22;7983;50.744;7.086;2024-01-30T09:17:07;10.40;99.90
15765;DHT22;7983;50.744;7.086;2024-01-30T09:19:32;10.50;99.90
15765;DHT22;7983;50.744;7.086;2024-01-30T09:21:58;10.60;99.90
15765;DHT22;7983;50.744;7.086;2024-01-30T09:24:27;10.60;99.90
15765;DHT22;7983;50.744;7.086;2024-01-30T09:26:52;10.70;99.90
15765;DHT22;7983;50.744;7.086;2024-01-30T09:29:18;10.70;99.90
15765;DHT22;7983;50.744;7.086;2024-01-30T09:31:45;10.80;99.90
15765;DHT22;7983;50.744;7.086;2024-01-30T09:34:10;10.90;99.90
15765;DHT22;7983;50.744;7.086;2024-01-30T09:36:36;11.10;99.90
15765;DHT22;7983;50.744;7.086;2024-01-30T09:39:02;11.30;99.90
15765;DHT22;7983;50.744;7.086;2024-01-30T09:41:30;11.50;99.90
15765;DHT22;7983;50.744;7.086;2024-01-30T09:43:57;12.00;99.90
15765;DHT22;7983;50.744;7.086;2024-01-30T09:46:27;12.40;99.90
15765;DHT22;7983;50.744;7.086;2024-01-30T09:48:55;12.80;99.90
15765;DHT22;7983;50.744;7.086;2024-01-30T09:51:21;13.20;99.90
15765;DHT22;7983;50.744;7.086;2024-01-30T09:53:48;13.40;99.90
15765;DHT22;7983;50.744;7.086;2024-01-30T09:56:14;13.70;99.90
15765;DHT22;7983;50.744;7.086;2024-01-30T09:58:40;13.90;99.90
15765;DHT22;7983;50.744;7.086;2024-01-30T10:01:06;13.90;99.90
15765;DHT22;7983;50.744;7.086;2024-01-30T10:03:32;13.90;99.90
15765;DHT22;7983;50.744;7.086;2024-01-30T10:05:57;14.00;99.90
15765;DHT22;7983;50.744;7.086;2024-01-30T10:08:23;14.00;99.90
15765;DHT22;7983;50.744;7.086;2024-01-30T10:10:49;14.00;99.90
15765;DHT22;7983;50.744;7.086;2024-01-30T10:13:16;13.90;99.90
15765;DHT22;7983;50.744;7.086;2024-01-30T10:15:42;13.80;99.90
15765;DHT22;7983;50.744;7.086;2024-01-30T10:18:11;13.70;99.90
15765;DHT22;7983;50.744;7.086;2024-01-30T10:20:37;13.50;99.90
15765;DHT22;7983;50.744;7.086;2024-01-30T10:23:03;13.40;99.90
15765;DHT22;7983;50.744;7.086;2024-01-30T10:25:30;13.20;99.90
15765;DHT22;7983;50.744;7.086;2024-01-30T10:28:02;13.10;99.90
15765;DHT22;7983;50.744;7.086;2024-01-30T10:30:27;13.00;99.90
15765;DHT22;7983;50.744;7.086;2024-01-30T10:32:55;12.80;99.90
15765;DHT22;7983;50.744;7.086;2024-01-30T10:35:28;12.80;99.90
15765;DHT22;7983;50.744;7.086;2024-01-30T10:37:56;12.70;99.90
15765;DHT22;7983;50.744;7.086;2024-01-30T10:40:27;12.60;99.90
15765;DHT22;7983;50.744;7.086;2024-01-30T10:42:58;12.60;99.90
15765;DHT22;7983;50.744;7.086;2024-01-30T10:45:26;12.50;99.90
15765;DHT22;7983;50.744;7.086;2024-01-30T10:47:57;12.50;99.90
15765;DHT22;7983;50.744;7.086;2024-01-30T10:50:27;12.50;99.90
15765;DHT22;7983;50.744;7.086;2024-01-30T10:52:54;12.40;99.90
15765;DHT22;7983;50.744;7.086;2024-01-30T10:55:21;12.40;99.90
15765;DHT22;7983;50.744;7.086;2024-01-30T10:57:48;12.40;99.90
15765;DHT22;7983;50.744;7.086;2024-01-30T11:00:15;12.30;99.90
15765;DHT22;7983;50.744;7.086;2024-01-30T11:02:45;12.30;99.90
15765;DHT22;7983;50.744;7.086;2024-01-30T11:05:12;12.20;99.90
15765;DHT22;7983;50.744;7.086;2024-01-30T11:07:41;12.20;99.90
15765;DHT22;7983;50.744;7.086;2024-01-30T11:10:09;12.20;99.90
15765;DHT22;7983;50.744;7.086;2024-01-30T11:12:42;12.20;99.90
15765;DHT22;7983;50.744;7.086;2024-01-30T11:15:20;12.20;99.90
15765;DHT22;7983;50.744;7.086;2024-01-30T11:17:51;12.20;99.90
15765;DHT22;7983;50.744;7.086;2024-01-30T11:20:30;12.10;99.90
15765;DHT22;7983;50.744;7.086;2024-01-30T11:23:01;12.30;99.90
15765;DHT22;7983;50.744;7.086;2024-01-30T11:25:32;12.20;99.90
15765;DHT22;7983;50.744;7.086;2024-01-30T11:27:57;12.30;99.90
15765;DHT22;7983;50.744;7.086;2024-01-30T11:30:27;12.30;99.90
15765;DHT22;7983;50.744;7.086;2024-01-30T11:35:57;12.40;99.90
15765;DHT22;7983;50.744;7.086;2024-01-30T11:38:27;12.40;99.90
15765;DHT22;7983;50.744;7.086;2024-01-30T11:40:54;12.50;99.90
15765;DHT22;7983;50.744;7.086;2024-01-30T11:43:25;12.50;99.90
15765;DHT22;7983;50.744;7.086;2024-01-30T11:45:51;12.60;99.90
15765;DHT22;7983;50.744;7.086;2024-01-30T11:48:17;12.60;99.90
15765;DHT22;7983;50.744;7.086;2024-01-30T11:50:43;12.70;99.90
15765;DHT22;7983;50.744;7.086;2024-01-30T11:53:11;12.80;99.90
15765;DHT22;7983;50.744;7.086;2024-01-30T11:55:40;12.90;99.90
15765;DHT22;7983;50.744;7.086;2024-01-30T11:58:06;12.90;99.90
15765;DHT22;7983;50.744;7.086;2024-01-30T12:00:31;13.00;99.90
15765;DHT22;7983;50.744;7.086;2024-01-30T12:02:58;13.00;99.90
15765;DHT22;7983;50.744;7.086;2024-01-30T12:05:26;13.20;99.90
15765;DHT22;7983;50.744;7.086;2024-01-30T12:07:52;13.20;99.90
15765;DHT22;7983;50.744;7.086;2024-01-30T12:10:21;13.30;99.90
15765;DHT22;7983;50.744;7.086;2024-01-30T12:12:49;13.40;99.90
15765;DHT22;7983;50.744;7.086;2024-01-30T12:15:15;13.50;99.90
15765;DHT22;7983;50.744;7.086;2024-01-30T12:17:43;13.50;99.90
15765;DHT22;7983;50.744;7.086;2024-01-30T12:20:14;13.60;99.90
15765;DHT22;7983;50.744;7.086;2024-01-30T12:22:44;13.60;99.90
15765;DHT22;7983;50.744;7.086;2024-01-30T12:25:16;13.70;99.90
15765;DHT22;7983;50.744;7.086;2024-01-30T12:27:47;13.70;99.90
15765;DHT22;7983;50.744;7.086;2024-01-30T12:30:19;13.80;99.90
15765;DHT22;7983;50.744;7.086;2024-01-30T12:32:46;13.80;99.90
15765;DHT22;7983;50.744;7.086;2024-01-30T12:35:17;13.90;99.90
15765;DHT22;7983;50.744;7.086;2024-01-30T12:37:46;13.90;99.90
15765;DHT22;7983;50.744;7.086;2024-01-30T12:40:14;13.90;99.90
15765;DHT22;7983;50.744;7.086;2024-01-30T12:42:46;14.00;99.90
15765;DHT22;7983;50.744;7.086;2024-01-30T12:45:14;14.00;99.90
15765;DHT22;7983;50.744;7.086;2024-01-30T12:47:42;14.00;99.90
15765;DHT22;7983;50.744;7.086;2024-01-30T12:50:10;14.10;99.90
15765;DHT22;7983;50.744;7.086;2024-01-30T12:52:41;14.00;99.90
15765;DHT22;7983;50.744;7.086;2024-01-30T12:55:11;14.00;99.90
15765;DHT22;7983;50.744;7.086;2024-01-30T12:57:38;14.00;99.90
15765;DHT22;7983;50.744;7.086;2024-01-30T13:00:10;14.00;99.90
15765;DHT22;7983;50.744;7.086;2024-01-30T13:02:36;13.90;99.90
15765;DHT22;7983;50.744;7.086;2024-01-30T13:05:03;13.90;99.90
15765;DHT22;7983;50.744;7.086;2024-01-30T13:07:29;13.90;99.90
15765;DHT22;7983;50.744;7.086;2024-01-30T13:09:54;13.90;99.90
15765;DHT22;7983;50.744;7.086;2024-01-30T13:12:20;13.90;99.90
15765;DHT22;7983;50.744;7.086;2024-01-30T13:14:46;13.90;99.90
15765;DHT22;7983;50.744;7.086;2024-01-30T13:17:11;13.90;99.90
15765;DHT22;7983;50.744;7.086;2024-01-30T13:19:39;13.90;99.90
15765;DHT22;7983;50.744;7.086;2024-01-30T13:22:05;13.90;99.90
15765;DHT22;7983;50.744;7.086;2024-01-30T13:24:35;13.80;99.90
15765;DHT22;7983;50.744;7.086;2024-01-30T13:27:03;13.90;99.90
15765;DHT22;7983;50.744;7.086;2024-01-30T13:29:31;13.90;99.90
15765;DHT22;7983;50.744;7.086;2024-01-30T13:31:59;13.90;99.90
15765;DHT22;7983;50.744;7.086;2024-01-30T13:34:27;13.90;99.90
15765;DHT22;7983;50.744;7.086;2024-01-30T13:36:58;13.80;99.90
15765;DHT22;7983;50.744;7.086;2024-01-30T13:39:28;13.80;99.90
15765;DHT22;7983;50.744;7.086;2024-01-30T13:41:56;13.80;99.90
15765;DHT22;7983;50.744;7.086;2024-01-30T13:44:21;13.80;99.90
15765;DHT22;7983;50.744;7.086;2024-01-30T13:46:47;13.80;99.90
15765;DHT22;7983;50.744;7.086;2024-01-30T13:49:13;13.80;99.90
15765;DHT22;7983;50.744;7.086;2024-01-30T13:51:38;13.80;99.90
15765;DHT22;7983;50.744;7.086;2024-01-30T13:54:06;13.80;99.90
15765;DHT22;7983;50.744;7.086;2024-01-30T13:56:34;13.80;99.90
15765;DHT22;7983;50.744;7.086;2024-01-30T13:58:59;13.80;99.90
15765;DHT22;7983;50.744;7.086;2024-01-30T14:01:26;13.80;99.90
15765;DHT22;7983;50.744;7.086;2024-01-30T14:03:52;13.70;99.90
15765;DHT22;7983;50.744;7.086;2024-01-30T14:06:20;13.70;99.90
15765;DHT22;7983;50.744;7.086;2024-01-30T14:08:46;13.70;99.90
15765;DHT22;7983;50.744;7.086;2024-01-30T14:11:16;13.60;99.90
15765;DHT22;7983;50.744;7.086;2024-01-30T14:13:42;13.60;99.90
15765;DHT22;7983;50.744;7.086;2024-01-30T14:16:10;13.60;99.90
15765;DHT22;7983;50.744;7.086;2024-01-30T14:18:36;13.60;99.90
15765;DHT22;7983;50.744;7.086;2024-01-30T14:21:01;13.60;99.90
15765;DHT22;7983;50.744;7.086;2024-01-30T14:23:28;13.60;99.90
15765;DHT22;7983;50.744;7.086;2024-01-30T14:25:53;13.60;99.90
15765;DHT22;7983;50.744;7.086;2024-01-30T14:28:19;13.70;99.90
15765;DHT22;7983;50.744;7.086;2024-01-30T14:30:44;13.70;99.90
15765;DHT22;7983;50.744;7.086;2024-01-30T14:33:10;13.70;99.90
15765;DHT22;7983;50.744;7.086;2024-01-30T14:35:39;13.70;99.90
15765;DHT22;7983;50.744;7.086;2024-01-30T14:38:04;13.70;99.90
15765;DHT22;7983;50.744;7.086;2024-01-30T14:40:33;13.70;99.90
15765;DHT22;7983;50.744;7.086;2024-01-30T14:42:58;13.60;99.90
15765;DHT22;7983;50.744;7.086;2024-01-30T14:45:26;13.60;99.90
15765;DHT22;7983;50.744;7.086;2024-01-30T14:47:52;13.60;99.90
15765;DHT22;7983;50.744;7.086;2024-01-30T14:50:27;13.60;99.90
15765;DHT22;7983;50.744;7.086;2024-01-30T14:53:02;13.50;99.90
15765;DHT22;7983;50.744;7.086;2024-01-30T14:55:33;13.50;99.90
15765;DHT22;7983;50.744;7.086;2024-01-30T14:57:59;13.50;99.90
15765;DHT22;7983;50.744;7.086;2024-01-30T15:00:27;13.40;99.90
15765;DHT22;7983;50.744;7.086;2024-01-30T15:02:53;13.40;99.90
15765;DHT22;7983;50.744;7.086;2024-01-30T15:05:26;13.40;99.90
15765;DHT22;7983;50.744;7.086;2024-01-30T15:07:52;13.40;99.90
15765;DHT22;7983;50.744;7.086;2024-01-30T15:10:18;13.30;99.90
15765;DHT22;7983;50.744;7.086;2024-01-30T15:12:43;13.30;99.90
15765;DHT22;7983;50.744;7.086;2024-01-30T15:15:09;13.30;99.90
15765;DHT22;7983;50.744;7.086;2024-01-30T15:17:35;13.30;99.90
15765;DHT22;7983;50.744;7.086;2024-01-30T15:20:01;13.20;99.90
15765;DHT22;7983;50.744;7.086;2024-01-30T15:22:29;13.20;99.90
15765;DHT22;7983;50.744;7.086;2024-01-30T15:25:00;13.20;99.90
15765;DHT22;7983;50.744;7.086;2024-01-30T15:27:28;13.20;99.90
15765;DHT22;7983;50.744;7.086;2024-01-30T15:29:53;13.10;99.90
15765;DHT22;7983;50.744;7.086;2024-01-30T15:32:19;13.20;99.90
15765;DHT22;7983;50.744;7.086;2024-01-30T15:34:45;13.10;99.90
15765;DHT22;7983;50.744;7.086;2024-01-30T15:37:13;13.10;99.90
15765;DHT22;7983;50.744;7.086;2024-01-30T15:39:38;13.10;99.90
15765;DHT22;7983;50.744;7.086;2024-01-30T15:42:07;13.20;99.90
15765;DHT22;7983;50.744;7.086;2024-01-30T15:44:32;13.10;99.90
15765;DHT22;7983;50.744;7.086;2024-01-30T15:46:58;13.10;99.90
15765;DHT22;7983;50.744;7.086;2024-01-30T15:49:23;13.10;99.90
15765;DHT22;7983;50.744;7.086;2024-01-30T15:51:50;13.10;99.90